createdAt,value
2023-05-14T00:02:58.268Z,100973.28
2023-05-14T00:08:00.652Z,100958.16
2023-05-14T00:13:02.788Z,100940.75
2023-05-14T00:18:05.045Z,100959.81
2023-05-14T00:23:07.253Z,100941.34
2023-05-14T00:28:09.410Z,100935.25
2023-05-14T00:33:11.597Z,100948.78
2023-05-14T00:38:17.201Z,100935.25
2023-05-14T00:43:20.756Z,100947.69
2023-05-14T00:48:23.749Z,100946.28
2023-05-14T00:53:26.654Z,100945.75
2023-05-14T00:58:29.416Z,100936.66
2023-05-14T01:03:32.360Z,100938.31
2023-05-14T01:08:53.552Z,100922.03
2023-05-14T01:14:23.207Z,100930.03
2023-05-14T01:19:43.045Z,100915.16
2023-05-14T01:24:45.181Z,100907.41
2023-05-14T01:29:59.157Z,100906.56
2023-05-14T01:35:01.815Z,100898.31
2023-05-14T01:40:05.185Z,100900.53
2023-05-14T01:45:08.269Z,100885.06
2023-05-14T01:50:10.855Z,100877.06
2023-05-14T01:55:13.013Z,100862.72
2023-05-14T02:00:15.377Z,100869.88
2023-05-14T02:05:17.721Z,100870.44
2023-05-14T02:10:20.021Z,100852.53
2023-05-14T02:15:22.239Z,100840.41
2023-05-14T02:20:24.661Z,100855.84
2023-05-14T02:25:27.015Z,100845.09
2023-05-14T02:30:30.127Z,100824.97
2023-05-14T02:35:32.281Z,100842.06
2023-05-14T02:40:34.413Z,100832.12
2023-05-14T02:45:36.597Z,100841.25
2023-05-14T02:50:38.818Z,100839.84
2023-05-14T02:55:41.396Z,100835.44
2023-05-14T03:00:43.535Z,100826.06
2023-05-14T03:05:46.254Z,100830.50
2023-05-14T03:10:48.449Z,100825.50
2023-05-14T03:15:54.909Z,100823.31
2023-05-14T03:20:57.279Z,100781.97
2023-05-14T03:25:59.501Z,100807.03
2023-05-14T03:31:01.886Z,100823.03
2023-05-14T03:36:05.518Z,100815.31
2023-05-14T03:41:07.652Z,100823.63
2023-05-14T03:46:09.760Z,100823.31
2023-05-14T03:51:12.226Z,100829.34
2023-05-14T03:56:14.347Z,100840.94
2023-05-14T04:01:16.692Z,100823.28
2023-05-14T04:06:19.278Z,100810.06
2023-05-14T04:11:21.675Z,100812.22
2023-05-14T04:16:23.916Z,100825.47
2023-05-14T04:21:26.066Z,100806.72
2023-05-14T04:26:28.258Z,100810.84
2023-05-14T04:31:30.551Z,100806.13
2023-05-14T04:36:32.922Z,100803.91
2023-05-14T04:41:35.155Z,100797.00
2023-05-14T04:46:37.536Z,100788.19
2023-05-14T04:51:39.942Z,100794.78
2023-05-14T04:56:42.104Z,100797.22
2023-05-14T05:01:45.422Z,100797.81
2023-05-14T05:06:47.808Z,100784.56
2023-05-14T05:11:49.921Z,100794.16
2023-05-14T05:16:52.052Z,100786.16
2023-05-14T05:21:54.179Z,100790.53
2023-05-14T05:26:56.684Z,100789.91
2023-05-14T05:31:59.228Z,100780.78
2023-05-14T05:37:01.420Z,100764.53
2023-05-14T05:42:04.194Z,100789.59
2023-05-14T05:47:06.448Z,100778.78
2023-05-14T05:52:08.776Z,100781.22
2023-05-14T05:57:10.961Z,100766.37
2023-05-14T06:02:13.253Z,100775.66
2023-05-14T06:07:15.435Z,100773.97
2023-05-14T06:12:17.556Z,100782.72
2023-05-14T06:17:19.773Z,100792.97
2023-05-14T06:22:21.981Z,100788.88
2023-05-14T06:27:24.109Z,100778.19
2023-05-14T06:32:26.294Z,100780.88
2023-05-14T06:37:28.573Z,100790.81
2023-05-14T06:42:30.855Z,100787.28
2023-05-14T06:47:33.684Z,100794.13
2023-05-14T06:52:37.537Z,100781.41
2023-05-14T06:57:40.810Z,100777.69
2023-05-14T07:02:43.251Z,100782.00
2023-05-14T07:07:45.569Z,100757.69
2023-05-14T07:12:47.930Z,100767.78
2023-05-14T07:17:50.231Z,100759.19
2023-05-14T07:22:53.152Z,100760.38
2023-05-14T07:27:55.820Z,100732.63
2023-05-14T07:32:57.995Z,100743.16
2023-05-14T07:38:00.379Z,100736.22
2023-05-14T07:43:02.561Z,100730.66
2023-05-14T07:48:05.145Z,100724.91
2023-05-14T07:53:08.570Z,100729.97
2023-05-14T07:58:11.009Z,100726.66
2023-05-14T08:03:13.521Z,100711.63
2023-05-14T08:08:16.359Z,100709.16
2023-05-14T08:13:18.555Z,100688.00
2023-05-14T08:18:20.835Z,100685.97
2023-05-14T08:23:23.005Z,100689.00
2023-05-14T08:28:25.343Z,100679.47
2023-05-14T08:33:27.474Z,100687.97
2023-05-14T08:38:29.673Z,100669.25
2023-05-14T08:43:47.553Z,100660.84
2023-05-14T08:48:58.534Z,100663.91
2023-05-14T08:54:03.547Z,100655.34
2023-05-14T08:59:05.686Z,100649.34
2023-05-14T09:04:08.650Z,100618.31
2023-05-14T09:09:11.468Z,100652.59
2023-05-14T09:14:13.681Z,100640.25
2023-05-14T09:19:19.027Z,100654.09
2023-05-14T09:24:22.535Z,100642.19
2023-05-14T09:29:29.690Z,100634.53
2023-05-14T09:34:34.853Z,100638.22
2023-05-14T09:39:38.370Z,100619.31
2023-05-14T09:44:40.585Z,100622.53
2023-05-14T09:49:42.764Z,100623.25
2023-05-14T09:54:47.388Z,100622.22
2023-05-14T09:59:49.560Z,100599.09
2023-05-14T10:04:54.672Z,100605.56
2023-05-14T10:10:03.018Z,100609.19
2023-05-14T10:15:17.930Z,100583.13
2023-05-14T10:20:20.867Z,100567.66
2023-05-14T10:25:23.981Z,100556.88
2023-05-14T10:30:27.301Z,100514.59
2023-05-14T10:35:29.584Z,100496.59
2023-05-14T10:40:32.192Z,100518.16
2023-05-14T10:45:34.676Z,100517.06
2023-05-14T10:50:36.937Z,100524.56
2023-05-14T10:55:39.461Z,100533.88
2023-05-14T11:00:41.642Z,100521.84
2023-05-14T11:05:44.998Z,100513.53
2023-05-14T11:10:47.574Z,100522.75
2023-05-14T11:15:49.907Z,100521.97
2023-05-14T11:20:52.706Z,100516.59
2023-05-14T11:25:56.645Z,100504.72
2023-05-14T11:30:59.200Z,100499.38
2023-05-14T11:36:01.364Z,100498.75
2023-05-14T11:41:05.726Z,100492.25
2023-05-14T11:46:07.881Z,100492.06
2023-05-14T11:51:10.333Z,100499.34
2023-05-14T11:56:12.617Z,100484.75
2023-05-14T12:01:15.820Z,100496.91
2023-05-14T12:06:19.126Z,100489.66
2023-05-14T12:11:22.101Z,100482.47
2023-05-14T12:16:24.258Z,100470.78
2023-05-14T12:21:27.584Z,100462.78
2023-05-14T12:26:33.031Z,100460.81
2023-05-14T12:31:36.572Z,100444.31
2023-05-14T12:36:38.965Z,100443.16
2023-05-14T12:41:41.354Z,100443.34
2023-05-14T12:46:43.582Z,100441.69
2023-05-14T12:51:46.989Z,100428.78
2023-05-14T12:56:50.232Z,100431.97
2023-05-14T13:01:52.563Z,100422.12
2023-05-14T13:06:54.770Z,100405.09
2023-05-14T13:11:56.983Z,100401.94
2023-05-14T13:16:59.341Z,100390.00
2023-05-14T13:22:01.507Z,100388.66
2023-05-14T13:27:03.933Z,100388.03
2023-05-14T13:32:06.375Z,100374.31
2023-05-14T13:37:08.589Z,100375.75
2023-05-14T13:42:10.826Z,100361.84
2023-05-14T13:47:13.065Z,100345.41
2023-05-14T13:52:15.367Z,100345.41
2023-05-14T13:57:17.687Z,100333.03
2023-05-14T14:02:19.863Z,100314.09
2023-05-14T14:07:22.056Z,100325.59
2023-05-14T14:12:24.287Z,100328.81
2023-05-14T14:17:26.657Z,100309.28
2023-05-14T14:22:29.263Z,100286.56
2023-05-14T14:27:36.094Z,100313.09
2023-05-14T14:32:38.217Z,100309.91
2023-05-14T14:37:41.905Z,100310.81
2023-05-14T14:42:44.272Z,100311.25
2023-05-14T14:47:46.753Z,100302.69
2023-05-14T14:52:48.959Z,100288.28
2023-05-14T14:57:51.121Z,100287.50
2023-05-14T15:02:53.380Z,100302.44
2023-05-14T15:07:55.706Z,100288.06
2023-05-14T15:12:59.197Z,100275.06
2023-05-14T15:18:02.167Z,100253.69
2023-05-14T15:23:04.506Z,100263.53
2023-05-14T15:28:07.672Z,100253.41
2023-05-14T15:33:10.901Z,100243.38
2023-05-14T15:38:13.311Z,100249.09
2023-05-14T15:43:15.478Z,100251.88
2023-05-14T15:48:17.766Z,100239.47
2023-05-14T15:53:20.159Z,100246.72
2023-05-14T15:58:22.705Z,100237.59
2023-05-14T16:03:24.964Z,100223.47
2023-05-14T16:08:27.179Z,100185.47
2023-05-14T16:13:29.362Z,100181.53
2023-05-14T16:18:31.633Z,100181.75
2023-05-14T16:23:33.870Z,100184.75
2023-05-14T16:28:36.108Z,100184.00
2023-05-14T16:33:38.244Z,100201.22
2023-05-14T16:38:52.365Z,100197.94
2023-05-14T16:44:02.690Z,100200.47
2023-05-14T16:49:04.875Z,100186.06
2023-05-14T16:54:07.055Z,100175.87
2023-05-14T16:59:09.224Z,100162.81
2023-05-14T17:04:11.954Z,100147.16
2023-05-14T17:09:14.150Z,100143.28
2023-05-14T17:14:16.253Z,100154.50
2023-05-14T17:19:18.330Z,100137.16
2023-05-14T17:24:20.468Z,100130.97
2023-05-14T17:29:23.258Z,100124.87
2023-05-14T17:34:25.443Z,100126.44
2023-05-14T17:39:28.259Z,100128.59
2023-05-14T17:44:30.481Z,100112.31
2023-05-14T17:49:32.741Z,100111.81
2023-05-14T17:54:35.022Z,100104.75
2023-05-14T17:59:37.657Z,100093.78
2023-05-14T18:04:39.910Z,100081.19
2023-05-14T18:09:42.045Z,100087.19
2023-05-14T18:14:45.736Z,100067.41
2023-05-14T18:19:48.275Z,100072.91
2023-05-14T18:24:50.568Z,100068.13
2023-05-14T18:29:53.361Z,100082.13
2023-05-14T18:34:55.867Z,100071.72
2023-05-14T18:39:58.047Z,100094.91
2023-05-14T18:45:00.509Z,100094.19
2023-05-14T18:50:03.377Z,100096.59
2023-05-14T18:55:05.966Z,100099.81
2023-05-14T19:00:08.767Z,100089.31
2023-05-14T19:05:10.941Z,100094.66
2023-05-14T19:10:13.103Z,100093.78
2023-05-14T19:15:16.608Z,100081.75
2023-05-14T19:20:18.884Z,100073.12
2023-05-14T19:25:21.062Z,100068.16
2023-05-14T19:30:23.561Z,100071.53
2023-05-14T19:35:26.227Z,100065.50
2023-05-14T19:40:28.832Z,100072.91
2023-05-14T19:45:31.160Z,100064.31
2023-05-14T19:50:33.799Z,100066.03
2023-05-14T19:55:36.057Z,100058.28
2023-05-14T20:00:38.801Z,100050.50
2023-05-14T20:05:40.930Z,100048.06
2023-05-14T20:10:44.600Z,100058.19
2023-05-14T20:15:46.913Z,100034.00
2023-05-14T20:20:49.197Z,100050.34
2023-05-14T20:25:51.470Z,100037.50
2023-05-14T20:30:54.839Z,100031.38
2023-05-14T20:35:57.019Z,100022.56
2023-05-14T20:40:59.150Z,100021.97
2023-05-14T20:46:01.348Z,100005.81
2023-05-14T20:51:06.458Z,100016.97
2023-05-14T20:56:08.636Z,99997.31
2023-05-14T21:01:10.815Z,100001.62
2023-05-14T21:06:13.036Z,99988.72
2023-05-14T21:11:15.234Z,99984.31
2023-05-14T21:16:17.407Z,99978.22
2023-05-14T21:21:19.550Z,99964.00
2023-05-14T21:26:22.332Z,99969.13
2023-05-14T21:31:24.695Z,99971.25
2023-05-14T21:36:26.990Z,99966.56
2023-05-14T21:41:31.622Z,99961.22
2023-05-14T21:46:33.894Z,99936.88
2023-05-14T21:51:36.051Z,99917.69
2023-05-14T21:56:38.332Z,99893.13
2023-05-14T22:02:04.775Z,99905.31
2023-05-14T22:07:03.606Z,99895.78
2023-05-14T22:12:06.962Z,99903.97
2023-05-14T22:17:09.132Z,99893.31
2023-05-14T22:22:11.281Z,99910.50
2023-05-14T22:27:13.667Z,99912.38
2023-05-14T22:32:15.849Z,99904.91
2023-05-14T22:37:18.141Z,99912.16
2023-05-14T22:42:20.620Z,99915.13
2023-05-14T22:47:22.864Z,99916.78
2023-05-14T22:52:25.932Z,99915.66
2023-05-14T22:57:28.159Z,99911.97
2023-05-14T23:02:30.946Z,99910.75
2023-05-14T23:07:33.182Z,99913.53
2023-05-14T23:12:35.336Z,99890.69
2023-05-14T23:17:38.410Z,99906.56
2023-05-14T23:22:40.826Z,99894.69
2023-05-14T23:27:43.008Z,99876.28
2023-05-14T23:32:45.145Z,99881.00
2023-05-14T23:37:49.491Z,99868.03
2023-05-14T23:42:51.720Z,99849.00
2023-05-14T23:47:54.792Z,99852.34
2023-05-14T23:52:57.025Z,99847.66
2023-05-14T23:57:59.250Z,99831.09
